sensor_id;sensor_type;location;lat;lon;timestamp;temperature;humidity
22145;DHT22;11238;48.730;11.566;2024-02-16T00:02:03;7.10;99.90
22145;DHT22;11238;48.730;11.566;2024-02-16T00:04:28;7.00;99.90
22145;DHT22;11238;48.730;11.566;2024-02-16T00:06:54;6.90;99.90
22145;DHT22;11238;48.730;11.566;2024-02-16T00:09:20;6.90;99.90
22145;DHT22;11238;48.730;11.566;2024-02-16T00:11:47;6.80;99.90
22145;DHT22;11238;48.730;11.566;2024-02-16T00:14:14;6.80;99.90
22145;DHT22;11238;48.730;11.566;2024-02-16T00:16:40;6.70;99.90
22145;DHT22;11238;48.730;11.566;2024-02-16T00:19:06;6.60;99.90
22145;DHT22;11238;48.730;11.566;2024-02-16T00:21:32;6.60;99.90
22145;DHT22;11238;48.730;11.566;2024-02-16T00:23:57;6.50;99.90
22145;DHT22;11238;48.730;11.566;2024-02-16T00:26:23;6.60;99.90
22145;DHT22;11238;48.730;11.566;2024-02-16T00:28:49;6.50;99.90
22145;DHT22;11238;48.730;11.566;2024-02-16T00:31:15;6.50;99.90
22145;DHT22;11238;48.730;11.566;2024-02-16T00:33:41;6.50;99.90
22145;DHT22;11238;48.730;11.566;2024-02-16T00:36:07;6.60;99.90
22145;DHT22;11238;48.730;11.566;2024-02-16T00:38:35;6.60;99.90
22145;DHT22;11238;48.730;11.566;2024-02-16T00:41:01;6.70;99.90
22145;DHT22;11238;48.730;11.566;2024-02-16T00:43:27;6.70;99.90
22145;DHT22;11238;48.730;11.566;2024-02-16T00:45:53;6.70;99.90
22145;DHT22;11238;48.730;11.566;2024-02-16T00:48:18;6.70;99.90
22145;DHT22;11238;48.730;11.566;2024-02-16T00:50:44;6.70;99.90
22145;DHT22;11238;48.730;11.566;2024-02-16T00:53:10;6.70;99.90
22145;DHT22;11238;48.730;11.566;2024-02-16T00:55:36;6.80;99.90
22145;DHT22;11238;48.730;11.566;2024-02-16T00:58:03;6.70;99.90
22145;DHT22;11238;48.730;11.566;2024-02-16T01:00:29;6.70;99.90
22145;DHT22;11238;48.730;11.566;2024-02-16T01:02:55;6.70;99.90
22145;DHT22;11238;48.730;11.566;2024-02-16T01:05:21;6.70;99.90
22145;DHT22;11238;48.730;11.566;2024-02-16T01:07:48;6.70;99.90
22145;DHT22;11238;48.730;11.566;2024-02-16T01:10:14;6.70;99.90
22145;DHT22;11238;48.730;11.566;2024-02-16T01:12:40;6.70;99.90
22145;DHT22;11238;48.730;11.566;2024-02-16T01:15:06;6.70;99.90
22145;DHT22;11238;48.730;11.566;2024-02-16T01:17:32;6.70;99.90
22145;DHT22;11238;48.730;11.566;2024-02-16T01:19:58;6.80;99.90
22145;DHT22;11238;48.730;11.566;2024-02-16T01:22:24;6.70;99.90
22145;DHT22;11238;48.730;11.566;2024-02-16T01:24:51;6.80;99.90
22145;DHT22;11238;48.730;11.566;2024-02-16T01:27:17;6.80;99.90
22145;DHT22;11238;48.730;11.566;2024-02-16T01:29:42;6.80;99.90
22145;DHT22;11238;48.730;11.566;2024-02-16T01:32:08;6.80;99.90
22145;DHT22;11238;48.730;11.566;2024-02-16T01:34:34;6.80;99.90
22145;DHT22;11238;48.730;11.566;2024-02-16T01:36:59;6.80;99.90
22145;DHT22;11238;48.730;11.566;2024-02-16T01:39:25;6.80;99.90
22145;DHT22;11238;48.730;11.566;2024-02-16T01:41:51;6.80;99.90
22145;DHT22;11238;48.730;11.566;2024-02-16T01:44:17;6.80;99.90
22145;DHT22;11238;48.730;11.566;2024-02-16T01:46:43;6.80;99.90
22145;DHT22;11238;48.730;11.566;2024-02-16T01:49:10;6.80;99.90
22145;DHT22;11238;48.730;11.566;2024-02-16T01:51:37;6.80;99.90
22145;DHT22;11238;48.730;11.566;2024-02-16T01:54:03;6.80;99.90
22145;DHT22;11238;48.730;11.566;2024-02-16T01:56:29;6.70;99.90
22145;DHT22;11238;48.730;11.566;2024-02-16T01:58:55;6.70;99.90
22145;DHT22;11238;48.730;11.566;2024-02-16T02:01:21;6.80;99.90
22145;DHT22;11238;48.730;11.566;2024-02-16T02:03:47;6.80;99.90
22145;DHT22;11238;48.730;11.566;2024-02-16T02:06:13;6.70;99.90
22145;DHT22;11238;48.730;11.566;2024-02-16T02:08:40;6.80;99.90
22145;DHT22;11238;48.730;11.566;2024-02-16T02:11:06;6.80;99.90
22145;DHT22;11238;48.730;11.566;2024-02-16T02:13:32;6.80;99.90
22145;DHT22;11238;48.730;11.566;2024-02-16T02:15:58;6.80;99.90
22145;DHT22;11238;48.730;11.566;2024-02-16T02:18:25;6.80;99.90
22145;DHT22;11238;48.730;11.566;2024-02-16T02:20:51;6.90;99.90
22145;DHT22;11238;48.730;11.566;2024-02-16T02:23:19;6.90;99.90
22145;DHT22;11238;48.730;11.566;2024-02-16T02:25:45;7.00;99.90
22145;DHT22;11238;48.730;11.566;2024-02-16T02:28:11;7.00;99.90
22145;DHT22;11238;48.730;11.566;2024-02-16T02:30:36;7.00;99.90
22145;DHT22;11238;48.730;11.566;2024-02-16T02:33:03;6.90;99.90
22145;DHT22;11238;48.730;11.566;2024-02-16T02:35:30;6.90;99.90
22145;DHT22;11238;48.730;11.566;2024-02-16T02:37:56;6.90;99.90
22145;DHT22;11238;48.730;11.566;2024-02-16T02:40:22;6.90;99.90
22145;DHT22;11238;48.730;11.566;2024-02-16T02:42:47;6.90;99.90
22145;DHT22;11238;48.730;11.566;2024-02-16T02:45:13;6.90;99.90
22145;DHT22;11238;48.730;11.566;2024-02-16T02:47:40;6.90;99.90
22145;DHT22;11238;48.730;11.566;2024-02-16T02:50:07;6.90;99.90
22145;DHT22;11238;48.730;11.566;2024-02-16T02:52:34;6.90;99.90
22145;DHT22;11238;48.730;11.566;2024-02-16T02:54:59;7.00;99.90
22145;DHT22;11238;48.730;11.566;2024-02-16T02:57:25;7.00;99.90
22145;DHT22;11238;48.730;11.566;2024-02-16T02:59:51;6.90;99.90
22145;DHT22;11238;48.730;11.566;2024-02-16T03:02:17;6.90;99.90
22145;DHT22;11238;48.730;11.566;2024-02-16T03:04:43;6.90;99.90
22145;DHT22;11238;48.730;11.566;2024-02-16T03:07:09;6.90;99.90
22145;DHT22;11238;48.730;11.566;2024-02-16T03:09:34;6.90;99.90
22145;DHT22;11238;48.730;11.566;2024-02-16T03:12:00;6.80;99.90
22145;DHT22;11238;48.730;11.566;2024-02-16T03:14:27;6.80;99.90
22145;DHT22;11238;48.730;11.566;2024-02-16T03:16:53;6.80;99.90
22145;DHT22;11238;48.730;11.566;2024-02-16T03:19:19;6.80;99.90
22145;DHT22;11238;48.730;11.566;2024-02-16T03:21:47;6.80;99.90
22145;DHT22;11238;48.730;11.566;2024-02-16T03:24:13;6.70;99.90
22145;DHT22;11238;48.730;11.566;2024-02-16T03:26:39;6.80;99.90
22145;DHT22;11238;48.730;11.566;2024-02-16T03:29:05;6.80;99.90
22145;DHT22;11238;48.730;11.566;2024-02-16T03:31:31;6.80;99.90
22145;DHT22;11238;48.730;11.566;2024-02-16T03:33:57;6.90;99.90
22145;DHT22;11238;48.730;11.566;2024-02-16T03:36:23;6.80;99.90
22145;DHT22;11238;48.730;11.566;2024-02-16T03:38:49;6.80;99.90
22145;DHT22;11238;48.730;11.566;2024-02-16T03:41:22;6.80;99.90
22145;DHT22;11238;48.730;11.566;2024-02-16T03:43:49;6.90;99.90
22145;DHT22;11238;48.730;11.566;2024-02-16T03:46:15;6.80;99.90
22145;DHT22;11238;48.730;11.566;2024-02-16T03:48:41;6.80;99.90
22145;DHT22;11238;48.730;11.566;2024-02-16T03:51:07;6.80;99.90
22145;DHT22;11238;48.730;11.566;2024-02-16T03:53:34;6.70;99.90
22145;DHT22;11238;48.730;11.566;2024-02-16T03:56:00;6.70;99.90
22145;DHT22;11238;48.730;11.566;2024-02-16T03:58:26;6.70;99.90
22145;DHT22;11238;48.730;11.566;2024-02-16T04:00:52;6.70;99.90
22145;DHT22;11238;48.730;11.566;2024-02-16T04:03:21;6.70;99.90
22145;DHT22;11238;48.730;11.566;2024-02-16T04:05:46;6.60;99.90
22145;DHT22;11238;48.730;11.566;2024-02-16T04:08:12;6.60;99.90
22145;DHT22;11238;48.730;11.566;2024-02-16T04:10:38;6.60;99.90
22145;DHT22;11238;48.730;11.566;2024-02-16T04:13:04;6.50;99.90
22145;DHT22;11238;48.730;11.566;2024-02-16T04:15:30;6.50;99.90
22145;DHT22;11238;48.730;11.566;2024-02-16T04:17:55;6.50;99.90
22145;DHT22;11238;48.730;11.566;2024-02-16T04:20:22;6.50;99.90
22145;DHT22;11238;48.730;11.566;2024-02-16T04:22:48;6.50;99.90
22145;DHT22;11238;48.730;11.566;2024-02-16T04:25:14;6.50;99.90
22145;DHT22;11238;48.730;11.566;2024-02-16T04:27:39;6.50;99.90
22145;DHT22;11238;48.730;11.566;2024-02-16T04:30:06;6.50;99.90
22145;DHT22;11238;48.730;11.566;2024-02-16T04:32:32;6.50;99.90
22145;DHT22;11238;48.730;11.566;2024-02-16T04:34:58;6.50;99.90
22145;DHT22;11238;48.730;11.566;2024-02-16T04:37:27;6.50;99.90
22145;DHT22;11238;48.730;11.566;2024-02-16T04:39:53;6.60;99.90
22145;DHT22;11238;48.730;11.566;2024-02-16T04:42:19;6.60;99.90
22145;DHT22;11238;48.730;11.566;2024-02-16T04:44:45;6.50;99.90
22145;DHT22;11238;48.730;11.566;2024-02-16T04:47:13;6.50;99.90
22145;DHT22;11238;48.730;11.566;2024-02-16T04:49:40;6.50;99.90
22145;DHT22;11238;48.730;11.566;2024-02-16T04:52:06;6.50;99.90
22145;DHT22;11238;48.730;11.566;2024-02-16T04:54:34;6.50;99.90
22145;DHT22;11238;48.730;11.566;2024-02-16T04:57:00;6.60;99.90
22145;DHT22;11238;48.730;11.566;2024-02-16T04:59:25;6.60;99.90
22145;DHT22;11238;48.730;11.566;2024-02-16T05:01:51;6.50;99.90
22145;DHT22;11238;48.730;11.566;2024-02-16T05:04:19;6.50;99.90
22145;DHT22;11238;48.730;11.566;2024-02-16T05:06:46;6.50;99.90
22145;DHT22;11238;48.730;11.566;2024-02-16T05:09:16;6.50;99.90
22145;DHT22;11238;48.730;11.566;2024-02-16T05:11:43;6.50;99.90
22145;DHT22;11238;48.730;11.566;2024-02-16T05:14:10;6.50;99.90
22145;DHT22;11238;48.730;11.566;2024-02-16T05:16:37;6.50;99.90
22145;DHT22;11238;48.730;11.566;2024-02-16T05:19:08;6.50;99.90
22145;DHT22;11238;48.730;11.566;2024-02-16T05:21:34;6.50;99.90
22145;DHT22;11238;48.730;11.566;2024-02-16T05:24:00;6.50;99.90
22145;DHT22;11238;48.730;11.566;2024-02-16T05:26:27;6.50;99.90
22145;DHT22;11238;48.730;11.566;2024-02-16T05:28:53;6.40;99.90
22145;DHT22;11238;48.730;11.566;2024-02-16T05:31:19;6.40;99.90
22145;DHT22;11238;48.730;11.566;2024-02-16T05:33:49;6.40;99.90
22145;DHT22;11238;48.730;11.566;2024-02-16T05:36:25;6.40;99.90
22145;DHT22;11238;48.730;11.566;2024-02-16T05:38:53;6.40;99.90
22145;DHT22;11238;48.730;11.566;2024-02-16T05:41:21;6.30;99.90
22145;DHT22;11238;48.730;11.566;2024-02-16T05:43:47;6.30;99.90
22145;DHT22;11238;48.730;11.566;2024-02-16T05:46:15;6.40;99.90
22145;DHT22;11238;48.730;11.566;2024-02-16T05:48:41;6.40;99.90
22145;DHT22;11238;48.730;11.566;2024-02-16T05:51:08;6.40;99.90
22145;DHT22;11238;48.730;11.566;2024-02-16T05:53:34;6.40;99.90
22145;DHT22;11238;48.730;11.566;2024-02-16T05:56:01;6.40;99.90
22145;DHT22;11238;48.730;11.566;2024-02-16T05:58:27;6.40;99.90
22145;DHT22;11238;48.730;11.566;2024-02-16T06:00:54;6.40;99.90
22145;DHT22;11238;48.730;11.566;2024-02-16T06:03:21;6.50;99.90
22145;DHT22;11238;48.730;11.566;2024-02-16T06:05:47;6.40;99.90
22145;DHT22;11238;48.730;11.566;2024-02-16T06:08:14;6.40;99.90
22145;DHT22;11238;48.730;11.566;2024-02-16T06:10:43;6.50;99.90
22145;DHT22;11238;48.730;11.566;2024-02-16T06:13:10;6.50;99.90
22145;DHT22;11238;48.730;11.566;2024-02-16T06:15:36;6.40;99.90
22145;DHT22;11238;48.730;11.566;2024-02-16T06:18:03;6.40;99.90
22145;DHT22;11238;48.730;11.566;2024-02-16T06:20:29;6.40;99.90
22145;DHT22;11238;48.730;11.566;2024-02-16T06:22:55;6.40;99.90
22145;DHT22;11238;48.730;11.566;2024-02-16T06:25:21;6.40;99.90
22145;DHT22;11238;48.730;11.566;2024-02-16T06:27:47;6.40;99.90
22145;DHT22;11238;48.730;11.566;2024-02-16T06:30:13;6.30;99.90
22145;DHT22;11238;48.730;11.566;2024-02-16T06:32:40;6.20;99.90
22145;DHT22;11238;48.730;11.566;2024-02-16T06:35:08;6.30;99.90
22145;DHT22;11238;48.730;11.566;2024-02-16T06:37:35;6.30;99.90
22145;DHT22;11238;48.730;11.566;2024-02-16T06:40:03;6.40;99.90
22145;DHT22;11238;48.730;11.566;2024-02-16T06:42:30;6.30;99.90
22145;DHT22;11238;48.730;11.566;2024-02-16T06:44:56;6.20;99.90
22145;DHT22;11238;48.730;11.566;2024-02-16T06:47:22;6.10;99.90
22145;DHT22;11238;48.730;11.566;2024-02-16T06:50:05;6.20;99.90
22145;DHT22;11238;48.730;11.566;2024-02-16T06:52:31;6.30;99.90
22145;DHT22;11238;48.730;11.566;2024-02-16T06:54:57;6.30;99.90
22145;DHT22;11238;48.730;11.566;2024-02-16T06:57:23;6.20;99.90
22145;DHT22;11238;48.730;11.566;2024-02-16T06:59:51;6.30;99.90
22145;DHT22;11238;48.730;11.566;2024-02-16T07:02:18;6.30;99.90
22145;DHT22;11238;48.730;11.566;2024-02-16T07:04:44;6.30;99.90
22145;DHT22;11238;48.730;11.566;2024-02-16T07:07:11;6.30;99.90
22145;DHT22;11238;48.730;11.566;2024-02-16T07:09:37;6.30;99.90
22145;DHT22;11238;48.730;11.566;2024-02-16T07:12:05;6.40;99.90
22145;DHT22;11238;48.730;11.566;2024-02-16T07:14:32;6.40;99.90
22145;DHT22;11238;48.730;11.566;2024-02-16T07:16:58;6.40;99.90
22145;DHT22;11238;48.730;11.566;2024-02-16T07:19:23;6.40;99.90
22145;DHT22;11238;48.730;11.566;2024-02-16T07:21:50;6.40;99.90
22145;DHT22;11238;48.730;11.566;2024-02-16T07:24:17;6.50;99.90
22145;DHT22;11238;48.730;11.566;2024-02-16T07:26:43;6.50;99.90
22145;DHT22;11238;48.730;11.566;2024-02-16T07:29:09;6.50;99.90
22145;DHT22;11238;48.730;11.566;2024-02-16T07:31:35;6.50;99.90
22145;DHT22;11238;48.730;11.566;2024-02-16T07:34:02;6.50;99.90
22145;DHT22;11238;48.730;11.566;2024-02-16T07:36:28;6.50;99.90
22145;DHT22;11238;48.730;11.566;2024-02-16T07:38:54;6.60;99.90
22145;DHT22;11238;48.730;11.566;2024-02-16T07:41:20;6.70;99.90
22145;DHT22;11238;48.730;11.566;2024-02-16T07:43:46;6.70;99.90
22145;DHT22;11238;48.730;11.566;2024-02-16T07:46:12;6.60;99.90
22145;DHT22;11238;48.730;11.566;2024-02-16T07:48:38;6.60;99.90
22145;DHT22;11238;48.730;11.566;2024-02-16T07:51:04;6.60;99.90
22145;DHT22;11238;48.730;11.566;2024-02-16T07:53:31;6.70;99.90
22145;DHT22;11238;48.730;11.566;2024-02-16T07:55:56;6.70;99.90
22145;DHT22;11238;48.730;11.566;2024-02-16T07:58:24;6.70;99.90
22145;DHT22;11238;48.730;11.566;2024-02-16T08:00:49;6.80;99.90
22145;DHT22;11238;48.730;11.566;2024-02-16T08:03:16;6.80;99.90
22145;DHT22;11238;48.730;11.566;2024-02-16T08:05:42;6.90;99.90
22145;DHT22;11238;48.730;11.566;2024-02-16T08:08:08;6.90;99.90
22145;DHT22;11238;48.730;11.566;2024-02-16T08:10:33;7.00;99.90
22145;DHT22;11238;48.730;11.566;2024-02-16T08:13:02;7.00;99.90
22145;DHT22;11238;48.730;11.566;2024-02-16T08:15:28;7.00;99.90
22145;DHT22;11238;48.730;11.566;2024-02-16T08:17:54;7.10;99.90
22145;DHT22;11238;48.730;11.566;2024-02-16T08:20:20;7.20;99.90
22145;DHT22;11238;48.730;11.566;2024-02-16T08:22:46;7.30;99.90
22145;DHT22;11238;48.730;11.566;2024-02-16T08:25:12;7.40;99.90
22145;DHT22;11238;48.730;11.566;2024-02-16T08:27:38;7.50;99.90
22145;DHT22;11238;48.730;11.566;2024-02-16T08:30:05;7.60;99.90
22145;DHT22;11238;48.730;11.566;2024-02-16T08:32:31;7.70;99.90
22145;DHT22;11238;48.730;11.566;2024-02-16T08:34:57;7.90;99.90
22145;DHT22;11238;48.730;11.566;2024-02-16T08:37:24;8.00;99.90
22145;DHT22;11238;48.730;11.566;2024-02-16T08:39:50;8.10;99.90
22145;DHT22;11238;48.730;11.566;2024-02-16T08:42:16;8.30;99.90
22145;DHT22;11238;48.730;11.566;2024-02-16T08:44:44;8.40;99.90
22145;DHT22;11238;48.730;11.566;2024-02-16T08:47:10;8.30;99.90
22145;DHT22;11238;48.730;11.566;2024-02-16T08:49:36;8.40;99.90
22145;DHT22;11238;48.730;11.566;2024-02-16T08:52:05;8.50;99.90
22145;DHT22;11238;48.730;11.566;2024-02-16T08:54:32;8.60;99.90
22145;DHT22;11238;48.730;11.566;2024-02-16T08:56:58;8.50;99.90
22145;DHT22;11238;48.730;11.566;2024-02-16T08:59:23;8.60;99.90
22145;DHT22;11238;48.730;11.566;2024-02-16T09:01:49;8.60;99.90
22145;DHT22;11238;48.730;11.566;2024-02-16T09:04:15;8.70;99.90
22145;DHT22;11238;48.730;11.566;2024-02-16T09:06:41;8.80;99.90
22145;DHT22;11238;48.730;11.566;2024-02-16T09:09:07;8.80;99.90
22145;DHT22;11238;48.730;11.566;2024-02-16T09:11:33;8.90;99.90
22145;DHT22;11238;48.730;11.566;2024-02-16T09:14:00;9.00;99.90
22145;DHT22;11238;48.730;11.566;2024-02-16T09:16:26;9.20;99.90
22145;DHT22;11238;48.730;11.566;2024-02-16T09:18:52;9.30;99.90
22145;DHT22;11238;48.730;11.566;2024-02-16T09:21:18;9.40;99.90
22145;DHT22;11238;48.730;11.566;2024-02-16T09:23:44;9.60;99.90
22145;DHT22;11238;48.730;11.566;2024-02-16T09:26:09;9.90;99.90
22145;DHT22;11238;48.730;11.566;2024-02-16T09:28:40;10.00;99.90
22145;DHT22;11238;48.730;11.566;2024-02-16T09:31:13;10.20;99.90
22145;DHT22;11238;48.730;11.566;2024-02-16T09:33:39;10.30;99.90
22145;DHT22;11238;48.730;11.566;2024-02-16T09:36:05;10.50;99.90
22145;DHT22;11238;48.730;11.566;2024-02-16T09:38:31;10.50;99.90
22145;DHT22;11238;48.730;11.566;2024-02-16T09:40:57;10.50;99.90
22145;DHT22;11238;48.730;11.566;2024-02-16T09:43:28;10.50;99.90
22145;DHT22;11238;48.730;11.566;2024-02-16T09:45:58;10.60;99.90
22145;DHT22;11238;48.730;11.566;2024-02-16T09:48:27;10.60;99.90
22145;DHT22;11238;48.730;11.566;2024-02-16T09:50:55;10.60;99.90
22145;DHT22;11238;48.730;11.566;2024-02-16T09:53:27;10.60;99.90
22145;DHT22;11238;48.730;11.566;2024-02-16T09:55:53;10.50;99.90
22145;DHT22;11238;48.730;11.566;2024-02-16T09:58:19;10.50;99.90
22145;DHT22;11238;48.730;11.566;2024-02-16T10:00:52;10.50;99.90
22145;DHT22;11238;48.730;11.566;2024-02-16T10:03:26;10.60;99.90
22145;DHT22;11238;48.730;11.566;2024-02-16T10:06:03;10.60;99.90
22145;DHT22;11238;48.730;11.566;2024-02-16T10:08:29;10.60;99.90
22145;DHT22;11238;48.730;11.566;2024-02-16T10:11:05;10.60;99.90
22145;DHT22;11238;48.730;11.566;2024-02-16T10:13:31;10.60;99.90
22145;DHT22;11238;48.730;11.566;2024-02-16T10:16:05;10.60;99.90
22145;DHT22;11238;48.730;11.566;2024-02-16T10:18:31;10.60;99.90
22145;DHT22;11238;48.730;11.566;2024-02-16T10:20:57;10.70;99.90
22145;DHT22;11238;48.730;11.566;2024-02-16T10:23:23;10.70;99.90
22145;DHT22;11238;48.730;11.566;2024-02-16T10:25:49;10.80;99.90
22145;DHT22;11238;48.730;11.566;2024-02-16T10:28:15;10.90;99.90
22145;DHT22;11238;48.730;11.566;2024-02-16T10:30:44;10.80;99.90
22145;DHT22;11238;48.730;11.566;2024-02-16T10:33:11;10.80;99.90
22145;DHT22;11238;48.730;11.566;2024-02-16T10:35:38;10.90;99.90
22145;DHT22;11238;48.730;11.566;2024-02-16T10:38:06;10.90;99.90
22145;DHT22;11238;48.730;11.566;2024-02-16T10:40:39;10.90;99.90
22145;DHT22;11238;48.730;11.566;2024-02-16T10:43:08;11.00;99.90
22145;DHT22;11238;48.730;11.566;2024-02-16T10:45:39;10.90;99.90
22145;DHT22;11238;48.730;11.566;2024-02-16T10:48:06;11.00;99.90
22145;DHT22;11238;48.730;11.566;2024-02-16T10:50:35;11.00;99.90
22145;DHT22;11238;48.730;11.566;2024-02-16T10:55:31;11.30;99.90
22145;DHT22;11238;48.730;11.566;2024-02-16T10:57:58;11.40;99.90
22145;DHT22;11238;48.730;11.566;2024-02-16T11:00:25;11.50;99.90
22145;DHT22;11238;48.730;11.566;2024-02-16T11:02:56;11.50;99.90
22145;DHT22;11238;48.730;11.566;2024-02-16T11:05:40;11.60;99.90
22145;DHT22;11238;48.730;11.566;2024-02-16T11:08:16;11.70;99.90
22145;DHT22;11238;48.730;11.566;2024-02-16T11:10:58;11.80;99.90
22145;DHT22;11238;48.730;11.566;2024-02-16T11:13:25;11.90;99.90
22145;DHT22;11238;48.730;11.566;2024-02-16T11:18:30;11.90;99.90
22145;DHT22;11238;48.730;11.566;2024-02-16T11:20:59;12.00;99.90
22145;DHT22;11238;48.730;11.566;2024-02-16T11:23:29;12.10;99.90
22145;DHT22;11238;48.730;11.566;2024-02-16T11:26:04;12.20;99.90
22145;DHT22;11238;48.730;11.566;2024-02-16T11:28:32;12.20;99.90
22145;DHT22;11238;48.730;11.566;2024-02-16T11:30:59;12.30;99.90
22145;DHT22;11238;48.730;11.566;2024-02-16T11:33:26;12.40;99.90
22145;DHT22;11238;48.730;11.566;2024-02-16T11:35:57;12.40;99.90
22145;DHT22;11238;48.730;11.566;2024-02-16T11:38:26;12.40;99.90
22145;DHT22;11238;48.730;11.566;2024-02-16T11:40:58;12.40;99.90
22145;DHT22;11238;48.730;11.566;2024-02-16T11:43:25;12.60;99.90
22145;DHT22;11238;48.730;11.566;2024-02-16T11:45:52;12.80;99.90
22145;DHT22;11238;48.730;11.566;2024-02-16T11:48:26;12.90;99.90
22145;DHT22;11238;48.730;11.566;2024-02-16T11:51:03;13.00;99.90
22145;DHT22;11238;48.730;11.566;2024-02-16T11:53:30;13.10;99.90
22145;DHT22;11238;48.730;11.566;2024-02-16T11:56:23;13.10;99.90
22145;DHT22;11238;48.730;11.566;2024-02-16T11:58:50;13.20;99.90
22145;DHT22;11238;48.730;11.566;2024-02-16T12:01:16;13.20;99.90
22145;DHT22;11238;48.730;11.566;2024-02-16T12:03:42;13.20;99.90
22145;DHT22;11238;48.730;11.566;2024-02-16T12:06:08;13.30;99.90
22145;DHT22;11238;48.730;11.566;2024-02-16T12:08:35;13.20;99.90
22145;DHT22;11238;48.730;11.566;2024-02-16T12:11:01;13.30;99.90
22145;DHT22;11238;48.730;11.566;2024-02-16T12:13:29;13.30;99.90
22145;DHT22;11238;48.730;11.566;2024-02-16T12:15:55;13.30;99.90
22145;DHT22;11238;48.730;11.566;2024-02-16T12:18:26;13.20;99.90
22145;DHT22;11238;48.730;11.566;2024-02-16T12:21:05;13.20;99.90
22145;DHT22;11238;48.730;11.566;2024-02-16T12:23:32;13.30;99.90
22145;DHT22;11238;48.730;11.566;2024-02-16T12:25:59;13.10;99.90
22145;DHT22;11238;48.730;11.566;2024-02-16T12:28:26;13.10;99.90
22145;DHT22;11238;48.730;11.566;2024-02-16T12:30:58;13.20;99.90
22145;DHT22;11238;48.730;11.566;2024-02-16T12:33:25;13.10;99.90
22145;DHT22;11238;48.730;11.566;2024-02-16T12:35:51;13.10;99.90
22145;DHT22;11238;48.730;11.566;2024-02-16T12:38:17;13.10;99.90
22145;DHT22;11238;48.730;11.566;2024-02-16T12:40:48;13.10;99.90
22145;DHT22;11238;48.730;11.566;2024-02-16T12:43:14;13.20;99.90
22145;DHT22;11238;48.730;11.566;2024-02-16T12:45:41;13.20;99.90
22145;DHT22;11238;48.730;11.566;2024-02-16T12:48:07;13.30;99.90
22145;DHT22;11238;48.730;11.566;2024-02-16T12:50:35;13.50;99.90
22145;DHT22;11238;48.730;11.566;2024-02-16T12:53:01;13.50;99.90
22145;DHT22;11238;48.730;11.566;2024-02-16T12:55:27;13.70;99.90
22145;DHT22;11238;48.730;11.566;2024-02-16T12:57:53;13.70;99.90
22145;DHT22;11238;48.730;11.566;2024-02-16T13:00:19;13.60;99.90
22145;DHT22;11238;48.730;11.566;2024-02-16T13:02:45;13.70;99.90
22145;DHT22;11238;48.730;11.566;2024-02-16T13:05:11;13.70;99.90
22145;DHT22;11238;48.730;11.566;2024-02-16T13:07:37;13.70;99.90
22145;DHT22;11238;48.730;11.566;2024-02-16T13:10:08;13.70;99.90
22145;DHT22;11238;48.730;11.566;2024-02-16T13:12:35;13.60;99.90
22145;DHT22;11238;48.730;11.566;2024-02-16T13:15:09;13.60;99.90
22145;DHT22;11238;48.730;11.566;2024-02-16T13:17:35;13.60;99.90
22145;DHT22;11238;48.730;11.566;2024-02-16T13:20:01;13.50;99.90
22145;DHT22;11238;48.730;11.566;2024-02-16T13:22:38;13.50;99.90
22145;DHT22;11238;48.730;11.566;2024-02-16T13:25:07;13.40;99.90
22145;DHT22;11238;48.730;11.566;2024-02-16T13:27:33;13.40;99.90
22145;DHT22;11238;48.730;11.566;2024-02-16T13:29:59;13.40;99.90
22145;DHT22;11238;48.730;11.566;2024-02-16T13:32:26;13.50;99.90
22145;DHT22;11238;48.730;11.566;2024-02-16T13:34:52;13.50;99.90
22145;DHT22;11238;48.730;11.566;2024-02-16T13:37:18;13.50;99.90
22145;DHT22;11238;48.730;11.566;2024-02-16T13:39:44;13.50;99.90
22145;DHT22;11238;48.730;11.566;2024-02-16T13:42:10;13.50;99.90
22145;DHT22;11238;48.730;11.566;2024-02-16T13:44:37;13.60;99.90
22145;DHT22;11238;48.730;11.566;2024-02-16T13:47:03;13.50;99.90
22145;DHT22;11238;48.730;11.566;2024-02-16T13:49:28;13.50;99.90
22145;DHT22;11238;48.730;11.566;2024-02-16T13:51:54;13.60;99.90
22145;DHT22;11238;48.730;11.566;2024-02-16T13:54:25;13.60;99.90
22145;DHT22;11238;48.730;11.566;2024-02-16T13:56:51;13.50;99.90
22145;DHT22;11238;48.730;11.566;2024-02-16T13:59:17;13.50;99.90
22145;DHT22;11238;48.730;11.566;2024-02-16T14:01:42;13.40;99.90
22145;DHT22;11238;48.730;11.566;2024-02-16T14:04:08;13.30;99.90
22145;DHT22;11238;48.730;11.566;2024-02-16T14:06:34;13.40;99.90
22145;DHT22;11238;48.730;11.566;2024-02-16T14:09:04;13.40;99.90
22145;DHT22;11238;48.730;11.566;2024-02-16T14:11:37;13.40;99.90
22145;DHT22;11238;48.730;11.566;2024-02-16T14:14:04;13.40;99.90
22145;DHT22;11238;48.730;11.566;2024-02-16T14:16:31;13.50;99.90
22145;DHT22;11238;48.730;11.566;2024-02-16T14:18:57;13.50;99.90
22145;DHT22;11238;48.730;11.566;2024-02-16T14:21:23;13.50;99.90
22145;DHT22;11238;48.730;11.566;2024-02-16T14:23:49;13.60;99.90
22145;DHT22;11238;48.730;11.566;2024-02-16T14:26:14;13.70;99.90
22145;DHT22;11238;48.730;11.566;2024-02-16T14:28:40;13.70;99.90
22145;DHT22;11238;48.730;11.566;2024-02-16T14:31:06;13.60;99.90
22145;DHT22;11238;48.730;11.566;2024-02-16T14:33:33;13.60;99.90
22145;DHT22;11238;48.730;11.566;2024-02-16T14:36:00;13.60;99.90
22145;DHT22;11238;48.730;11.566;2024-02-16T14:38:26;13.60;99.90
22145;DHT22;11238;48.730;11.566;2024-02-16T14:40:52;13.60;99.90
22145;DHT22;11238;48.730;11.566;2024-02-16T14:43:18;13.60;99.90
22145;DHT22;11238;48.730;11.566;2024-02-16T14:45:44;13.60;99.90
22145;DHT22;11238;48.730;11.566;2024-02-16T14:48:09;13.50;99.90
22145;DHT22;11238;48.730;11.566;2024-02-16T14:50:37;13.60;99.90
22145;DHT22;11238;48.730;11.566;2024-02-16T14:53:03;13.60;99.90
22145;DHT22;11238;48.730;11.566;2024-02-16T14:55:30;13.50;99.90
22145;DHT22;11238;48.730;11.566;2024-02-16T14:57:55;13.60;99.90
22145;DHT22;11238;48.730;11.566;2024-02-16T15:00:21;13.60;99.90
22145;DHT22;11238;48.730;11.566;2024-02-16T15:02:48;13.60;99.90
22145;DHT22;11238;48.730;11.566;2024-02-16T15:05:15;13.60;99.90
22145;DHT22;11238;48.730;11.566;2024-02-16T15:07:40;13.60;99.90
22145;DHT22;11238;48.730;11.566;2024-02-16T15:10:07;13.60;99.90
22145;DHT22;11238;48.730;11.566;2024-02-16T15:12:33;13.60;99.90
22145;DHT22;11238;48.730;11.566;2024-02-16T15:14:59;13.60;99.90
22145;DHT22;11238;48.730;11.566;2024-02-16T15:17:25;13.60;99.90
22145;DHT22;11238;48.730;11.566;2024-02-16T15:19:51;13.60;99.90
22145;DHT22;11238;48.730;11.566;2024-02-16T15:22:18;13.60;99.90
22145;DHT22;11238;48.730;11.566;2024-02-16T15:24:43;13.50;99.90
22145;DHT22;11238;48.730;11.566;2024-02-16T15:27:10;13.50;99.90
22145;DHT22;11238;48.730;11.566;2024-02-16T15:29:36;13.50;99.90